createdAt,value
2023-01-07T00:01:55.435Z,100531.60
2023-01-07T00:06:59.769Z,100541.20
2023-01-07T00:12:02.885Z,100543.00
2023-01-07T00:17:06.188Z,100546.20
2023-01-07T00:22:09.424Z,100547.40
2023-01-07T00:27:12.707Z,100536.40
2023-01-07T00:32:16.016Z,100538.80
2023-01-07T00:37:38.066Z,100537.40
2023-01-07T00:43:01.596Z,100530.60
2023-01-07T00:48:05.683Z,100541.60
2023-01-07T00:53:11.721Z,100552.60
2023-01-07T00:58:19.802Z,100556.60
2023-01-07T01:03:24.010Z,100556.00
2023-01-07T01:08:27.014Z,100558.20
2023-01-07T01:13:30.256Z,100548.80
2023-01-07T01:18:33.434Z,100555.20
2023-01-07T01:23:37.351Z,100561.20
2023-01-07T01:28:40.566Z,100561.60
2023-01-07T01:33:43.779Z,100558.40
2023-01-07T01:38:46.884Z,100555.00
2023-01-07T01:43:50.191Z,100553.80
2023-01-07T01:49:04.892Z,100557.20
2023-01-07T01:54:14.004Z,100547.60
2023-01-07T01:59:25.691Z,100549.80
2023-01-07T02:04:31.267Z,100543.40
2023-01-07T02:09:34.394Z,100549.40
2023-01-07T02:15:24.503Z,100545.00
2023-01-07T02:20:39.726Z,100541.00
2023-01-07T02:25:57.982Z,100541.20
2023-01-07T02:31:25.615Z,100542.60
2023-01-07T02:36:37.974Z,100536.40
2023-01-07T02:42:50.903Z,100545.60
2023-01-07T02:48:00.057Z,100545.80
2023-01-07T02:53:03.774Z,100540.40
2023-01-07T02:58:15.988Z,100539.00
2023-01-07T03:03:50.853Z,100541.60
2023-01-07T03:09:17.920Z,100541.40
2023-01-07T03:14:37.515Z,100535.60
2023-01-07T03:19:47.543Z,100533.80
2023-01-07T03:24:55.324Z,100540.00
2023-01-07T03:30:00.726Z,100544.40
2023-01-07T03:35:04.571Z,100550.00
2023-01-07T03:40:11.861Z,100556.00
2023-01-07T03:45:22.918Z,100561.00
2023-01-07T03:50:26.081Z,100556.60
2023-01-07T03:55:29.296Z,100561.60
2023-01-07T04:00:32.615Z,100568.00
2023-01-07T04:05:35.702Z,100564.00
2023-01-07T04:10:38.816Z,100575.40
2023-01-07T04:15:42.775Z,100575.40
2023-01-07T04:20:48.506Z,100576.00
2023-01-07T04:25:51.736Z,100576.40
2023-01-07T04:30:55.097Z,100579.80
2023-01-07T04:35:58.434Z,100577.00
2023-01-07T04:41:01.468Z,100580.80
2023-01-07T04:46:05.099Z,100585.20
2023-01-07T04:51:08.293Z,100583.60
2023-01-07T04:56:11.389Z,100596.80
2023-01-07T05:01:14.588Z,100585.40
2023-01-07T05:06:17.786Z,100587.00
2023-01-07T05:11:22.100Z,100591.60
2023-01-07T05:16:25.252Z,100593.60
2023-01-07T05:21:28.643Z,100592.60
2023-01-07T05:26:31.756Z,100591.40
2023-01-07T05:31:34.851Z,100602.40
2023-01-07T05:36:38.073Z,100599.00
2023-01-07T05:41:41.172Z,100607.20
2023-01-07T05:46:45.101Z,100607.20
2023-01-07T05:51:48.207Z,100605.00
2023-01-07T05:56:51.415Z,100601.40
2023-01-07T06:01:54.539Z,100604.80
2023-01-07T06:06:57.620Z,100603.80
2023-01-07T06:12:00.829Z,100603.20
2023-01-07T06:17:03.941Z,100613.40
2023-01-07T06:22:07.147Z,100623.00
2023-01-07T06:27:10.938Z,100633.80
2023-01-07T06:32:13.988Z,100643.60
2023-01-07T06:37:18.313Z,100645.00
2023-01-07T06:42:21.457Z,100653.40
2023-01-07T06:47:25.642Z,100661.00
2023-01-07T06:52:28.751Z,100660.00
2023-01-07T06:57:32.195Z,100662.40
2023-01-07T07:02:35.388Z,100665.60
2023-01-07T07:07:39.113Z,100668.20
2023-01-07T07:12:42.328Z,100672.00
2023-01-07T07:17:45.510Z,100672.60
2023-01-07T07:22:49.169Z,100676.40
2023-01-07T07:27:52.240Z,100676.20
2023-01-07T07:32:55.342Z,100679.40
2023-01-07T07:37:58.395Z,100684.60
2023-01-07T07:43:10.303Z,100682.60
2023-01-07T07:48:16.709Z,100679.40
2023-01-07T07:53:20.877Z,100677.80
2023-01-07T07:58:24.292Z,100685.80
2023-01-07T08:03:27.977Z,100689.80
2023-01-07T08:08:31.114Z,100695.00
2023-01-07T08:13:34.324Z,100693.40
2023-01-07T08:18:37.634Z,100692.20
2023-01-07T08:23:40.768Z,100699.40
2023-01-07T08:28:46.488Z,100708.80
2023-01-07T08:33:50.025Z,100716.00
2023-01-07T08:38:54.697Z,100717.40
2023-01-07T08:43:57.801Z,100721.80
2023-01-07T08:49:01.080Z,100716.80
2023-01-07T08:54:04.400Z,100719.20
2023-01-07T08:59:07.502Z,100713.40
2023-01-07T09:04:10.613Z,100722.20
2023-01-07T09:09:16.803Z,100714.40
2023-01-07T09:14:19.797Z,100713.80
2023-01-07T09:19:23.200Z,100720.40
2023-01-07T09:24:26.303Z,100720.80
2023-01-07T09:29:29.513Z,100721.60
2023-01-07T09:34:32.830Z,100726.00
2023-01-07T09:39:35.947Z,100727.20
2023-01-07T09:45:13.879Z,100728.00
2023-01-07T09:50:44.609Z,100722.00
2023-01-07T09:56:11.029Z,100726.20
2023-01-07T10:01:42.544Z,100730.80
2023-01-07T10:07:14.724Z,100731.60
2023-01-07T10:12:36.066Z,100736.40
2023-01-07T10:18:24.223Z,100734.20
2023-01-07T10:23:38.490Z,100726.00
2023-01-07T10:28:54.408Z,100714.00
2023-01-07T10:33:58.836Z,100701.60
2023-01-07T10:39:31.329Z,100689.80
2023-01-07T10:45:16.031Z,100694.20
2023-01-07T10:50:47.276Z,100691.40
2023-01-07T10:56:36.697Z,100693.20
2023-01-07T11:01:46.523Z,100692.60
2023-01-07T11:07:06.866Z,100693.20
2023-01-07T11:12:33.805Z,100692.40
2023-01-07T11:17:47.882Z,100686.60
2023-01-07T11:22:50.984Z,100698.60
2023-01-07T11:28:01.693Z,100694.60
2023-01-07T11:33:20.122Z,100687.60
2023-01-07T11:38:33.488Z,100688.60
2023-01-07T11:43:41.190Z,100695.00
2023-01-07T11:49:00.985Z,100695.20
2023-01-07T11:54:04.373Z,100680.80
2023-01-07T11:59:16.126Z,100690.20
2023-01-07T12:04:33.042Z,100688.40
2023-01-07T12:09:40.547Z,100686.00
2023-01-07T12:14:48.406Z,100673.60
2023-01-07T12:20:18.802Z,100668.60
2023-01-07T12:26:02.360Z,100673.20
2023-01-07T12:31:31.010Z,100665.80
2023-01-07T12:36:48.099Z,100663.00
2023-01-07T12:42:06.572Z,100663.00
2023-01-07T12:47:31.276Z,100671.80
2023-01-07T12:53:03.582Z,100670.80
2023-01-07T12:58:39.651Z,100667.40
2023-01-07T13:04:27.624Z,100664.40
2023-01-07T13:09:55.385Z,100664.60
2023-01-07T13:15:05.638Z,100667.80
2023-01-07T13:20:14.968Z,100670.60
2023-01-07T13:25:45.899Z,100674.00
2023-01-07T13:31:04.310Z,100673.60
2023-01-07T13:36:23.529Z,100675.80
2023-01-07T13:41:37.375Z,100675.60
2023-01-07T13:46:45.893Z,100682.20
2023-01-07T13:51:49.046Z,100679.40
2023-01-07T13:56:52.866Z,100685.60
2023-01-07T14:02:16.894Z,100683.60
2023-01-07T14:07:20.780Z,100684.00
2023-01-07T14:12:55.102Z,100684.00
2023-01-07T14:19:02.623Z,100686.40
2023-01-07T14:24:35.440Z,100693.20
2023-01-07T14:29:52.505Z,100698.60
2023-01-07T14:35:02.004Z,100696.00
2023-01-07T14:40:27.266Z,100714.20
2023-01-07T14:45:39.275Z,100709.80
2023-01-07T14:51:06.457Z,100722.20
2023-01-07T14:56:40.997Z,100722.80
2023-01-07T15:02:18.038Z,100726.00
2023-01-07T15:07:26.920Z,100728.20
2023-01-07T15:12:55.205Z,100721.80
2023-01-07T15:17:59.344Z,100725.80
2023-01-07T15:23:35.314Z,100713.00
2023-01-07T15:28:59.923Z,100715.00
2023-01-07T15:34:14.602Z,100716.40
2023-01-07T15:39:24.589Z,100711.80
2023-01-07T15:44:41.260Z,100709.60
2023-01-07T15:49:44.436Z,100710.80
2023-01-07T15:54:47.501Z,100709.20
2023-01-07T15:59:53.727Z,100703.20
2023-01-07T16:05:04.360Z,100700.80
2023-01-07T16:10:19.817Z,100695.20
2023-01-07T16:15:37.784Z,100692.40
2023-01-07T16:21:01.252Z,100705.20
2023-01-07T16:26:21.616Z,100689.00
2023-01-07T16:31:29.391Z,100699.40
2023-01-07T16:36:41.379Z,100700.80
2023-01-07T16:41:44.656Z,100702.00
2023-01-07T16:47:13.924Z,100688.80
2023-01-07T16:52:24.672Z,100676.00
2023-01-07T16:57:40.065Z,100677.40
2023-01-07T17:02:59.816Z,100679.00
2023-01-07T17:08:15.752Z,100675.00
2023-01-07T17:13:24.734Z,100671.80
2023-01-07T17:18:29.497Z,100674.60
2023-01-07T17:23:41.571Z,100674.80
2023-01-07T17:28:51.933Z,100676.60
2023-01-07T17:33:56.444Z,100661.20
2023-01-07T17:39:02.039Z,100657.60
2023-01-07T17:44:11.705Z,100662.00
2023-01-07T17:49:15.005Z,100663.20
2023-01-07T17:54:24.522Z,100663.00
2023-01-07T17:59:29.001Z,100662.20
2023-01-07T18:04:32.114Z,100662.60
2023-01-07T18:09:35.745Z,100652.00
2023-01-07T18:14:38.936Z,100648.40
2023-01-07T18:19:42.262Z,100651.40
2023-01-07T18:24:45.355Z,100643.60
2023-01-07T18:29:48.572Z,100641.40
2023-01-07T18:34:51.858Z,100640.40
2023-01-07T18:39:57.321Z,100642.40
2023-01-07T18:45:02.740Z,100638.20
2023-01-07T18:50:09.709Z,100637.60
2023-01-07T18:55:16.474Z,100643.60
2023-01-07T19:00:20.487Z,100647.80
2023-01-07T19:05:23.922Z,100655.80
2023-01-07T19:10:27.953Z,100658.20
2023-01-07T19:15:30.975Z,100654.80
2023-01-07T19:20:35.499Z,100650.00
2023-01-07T19:25:38.607Z,100646.80
2023-01-07T19:30:41.725Z,100644.80
2023-01-07T19:35:45.026Z,100636.20
2023-01-07T19:40:52.219Z,100630.20
2023-01-07T19:45:57.074Z,100627.00
2023-01-07T19:51:04.345Z,100624.60
2023-01-07T19:56:11.937Z,100623.60
2023-01-07T20:01:18.179Z,100627.40
2023-01-07T20:06:28.410Z,100622.00
2023-01-07T20:11:31.555Z,100614.40
2023-01-07T20:16:37.004Z,100612.60
2023-01-07T20:21:40.243Z,100606.80
2023-01-07T20:26:43.346Z,100601.80
2023-01-07T20:31:46.679Z,100588.80
2023-01-07T20:36:49.948Z,100590.80
2023-01-07T20:41:53.050Z,100585.00
2023-01-07T20:46:56.154Z,100583.20
2023-01-07T20:51:59.382Z,100585.60
2023-01-07T20:57:02.998Z,100587.80
2023-01-07T21:02:06.448Z,100582.40
2023-01-07T21:07:10.846Z,100577.80
2023-01-07T21:12:13.970Z,100574.40
2023-01-07T21:17:17.158Z,100584.80
2023-01-07T21:22:23.836Z,100578.40
2023-01-07T21:27:26.840Z,100570.40
2023-01-07T21:32:30.089Z,100563.20
2023-01-07T21:37:33.155Z,100562.60
2023-01-07T21:42:36.804Z,100562.60
2023-01-07T21:47:40.249Z,100567.80
2023-01-07T21:52:43.703Z,100566.20
2023-01-07T21:57:47.017Z,100568.40
2023-01-07T22:02:50.221Z,100567.20
2023-01-07T22:07:53.536Z,100565.80
2023-01-07T22:12:56.739Z,100560.80
2023-01-07T22:17:59.861Z,100561.60
2023-01-07T22:23:03.052Z,100564.20
2023-01-07T22:28:06.883Z,100557.80
2023-01-07T22:33:10.440Z,100555.40
2023-01-07T22:38:14.732Z,100555.00
2023-01-07T22:43:23.785Z,100552.40
2023-01-07T22:48:33.954Z,100551.60
2023-01-07T22:53:37.293Z,100557.00
2023-01-07T22:58:40.461Z,100550.40
2023-01-07T23:03:45.849Z,100548.20
2023-01-07T23:08:49.644Z,100550.40
2023-01-07T23:13:52.764Z,100542.60
2023-01-07T23:18:55.787Z,100535.00
2023-01-07T23:24:00.048Z,100527.00
2023-01-07T23:29:04.255Z,100528.40
2023-01-07T23:34:08.555Z,100521.20
2023-01-07T23:39:12.075Z,100514.60
2023-01-07T23:44:15.383Z,100505.40
2023-01-07T23:49:18.394Z,100505.00
2023-01-07T23:54:22.958Z,100493.40
2023-01-07T23:59:26.141Z,100492.60
